Ana Sayfa
METAR-TAF:

METAR-TAF

Havaalanları :

Pontianak, Endonezya

Enlem: 00-09S, Boylam: 109-24E, yükseklik: 3 m

Güncel hava durumu gözlemi

Rapor saat 07:30 UTC de 14 saat ve 21 dakika önce yapıldı.
Rüzgar doğu/kuzeydoğudan 5 kt
Sıcaklık 33°C
Nem 59%
Basınç 1007 hPa
Görüş mesafesi 10 km veya daha fazla
1300 ft yükseklikte parçalı çok bulutlu

METAR: WIOO 240730Z 06005KT 9999 FEW 012CB BKN013 33/24 Q1007 NOSIG

Saat: 04:51 (21:51 UTC)


TAF: eksik

4.000'den fazla havaalanı için hava durumu gözlemleri ve tahminleri (METAR ve TAF raporları).

Kullanılabilir istasyonlar harita üzerinde sarı ve kırmızı noktalarla gösterilir.

İstasyonun adını görmek için fareyi noktanın üzerinde gezdirin.

Sonrasında hava gözlem ve tahminlerini görmek için tıklayın.

Haritayı değiştirmek için: yaklaştırmak için siyah artı işaretli yeşil düğmeye ve uzaklaştırmak için de eksi işaretli düğmeye hızla tıklayın; bitişik haritalar için yeşil okları kullanın.


METAR-TAF: